Time;durP1;ratioP1;P1;durP2;ratioP2;P2;SDS_P1;SDS_P2;PMS_P1;PMS_P2;Temp;Humidity;BMP_temperature;BMP_pressure;BME280_temperature;BME280_humidity;BME280_pressure;Samples;Min_cycle;Max_cycle;Signal;HPM_P1;HPM_P2
2021/08/11 00:09:39;;;;;;;;;2.00;2.00;;;;;21.42;62.02;101543.34;5445095;23;46363;-78
2021/08/11 00:12:14;;;;;;;;;3.33;3.33;;;;;21.41;62.35;101546.97;4940231;28;47231;-78
2021/08/11 00:14:42;;;;;;;;;3.00;2.00;;;;;21.33;61.54;101536.50;4942359;28;45492;-79
2021/08/11 00:17:08;;;;;;;;;3.00;3.00;;;;;21.35;61.84;101539.09;4940234;28;45756;-78
2021/08/11 00:19:38;;;;;;;;;2.67;2.67;;;;;21.35;61.49;101536.41;4923731;28;45358;-79
2021/08/11 00:22:07;;;;;;;;;3.00;3.00;;;;;21.34;61.64;101540.03;4924631;28;46889;-78
2021/08/11 00:24:34;;;;;;;;;4.00;4.00;;;;;21.36;61.81;101543.53;4942063;28;45263;-79
2021/08/11 00:27:00;;;;;;;;;3.00;2.00;;;;;21.33;61.18;101541.84;4941881;28;45284;-79
2021/08/11 00:29:27;;;;;;;;;2.67;2.67;;;;;21.34;61.31;101542.72;4942002;28;45241;-78
2021/08/11 00:31:58;;;;;;;;;4.00;2.67;;;;;21.38;61.00;101548.88;4940213;28;47603;-78
2021/08/11 00:34:28;;;;;;;;;2.33;2.33;;;;;21.36;60.78;101548.91;4942153;28;45443;-79
2021/08/11 00:37:09;;;;;;;;;1.67;1.67;;;;;21.39;60.70;101550.63;4932436;28;45441;-78
2021/08/11 00:39:44;;;;;;;;;1.67;1.33;;;;;21.36;60.34;101552.44;4939777;28;45285;-78
2021/08/11 00:42:09;;;;;;;;;3.67;3.00;;;;;21.44;60.21;101560.25;4941934;28;46224;-78
2021/08/11 00:44:40;;;;;;;;;2.00;2.00;;;;;21.42;60.33;101559.44;4940337;28;45356;-78
2021/08/11 00:47:11;;;;;;;;;2.00;2.00;;;;;21.45;59.73;101559.31;4941918;28;45488;-78
2021/08/11 00:49:39;;;;;;;;;2.67;2.67;;;;;21.49;59.82;101569.00;4924394;28;46351;-78
2021/08/11 00:52:16;;;;;;;;;1.00;1.00;;;;;21.51;59.87;101561.75;4941937;28;46333;-78
2021/08/11 00:54:45;;;;;;;;;2.00;2.00;;;;;21.55;59.23;101566.09;4942054;28;45272;-77
2021/08/11 00:57:15;;;;;;;;;2.67;1.67;;;;;21.58;59.54;101571.34;4941503;28;45185;-77
2021/08/11 00:59:44;;;;;;;;;2.00;2.00;;;;;21.61;59.15;101569.47;4942001;28;45271;-77
2021/08/11 01:02:14;;;;;;;;;1.00;1.00;;;;;21.59;59.02;101559.66;4938762;28;47395;-78
2021/08/11 01:04:49;;;;;;;;;2.00;2.00;;;;;21.54;58.84;101547.38;4941814;28;45421;-78
2021/08/11 01:07:17;;;;;;;;;3.00;3.00;;;;;21.58;58.85;101557.94;4941629;28;45351;-77
2021/08/11 01:09:53;;;;;;;;;1.33;1.33;;;;;21.54;58.76;101559.00;4940839;28;45256;-78
2021/08/11 01:12:22;;;;;;;;;1.00;1.00;;;;;21.52;58.14;101554.63;4941167;28;45419;-78
2021/08/11 01:15:02;;;;;;;;;2.33;2.33;;;;;21.54;58.30;101561.69;4941698;28;45485;-78
2021/08/11 01:17:29;;;;;;;;;1.00;1.00;;;;;21.45;58.27;101542.38;4929737;28;45314;-77
2021/08/11 01:20:06;;;;;;;;;0.67;0.67;;;;;21.44;58.07;101546.84;4924273;28;45517;-78
2021/08/11 01:22:49;;;;;;;;;1.00;1.00;;;;;21.43;58.10;101546.91;4928647;28;47170;-78
2021/08/11 01:25:37;;;;;;;;;1.00;1.00;;;;;21.44;57.96;101548.63;4941080;28;45426;-78
2021/08/11 01:28:11;;;;;;;;;1.00;1.00;;;;;21.47;58.01;101554.78;4941252;28;45269;-78
2021/08/11 01:30:53;;;;;;;;;1.00;1.00;;;;;21.46;57.99;101547.66;4929375;28;45529;-77
2021/08/11 01:33:45;;;;;;;;;2.00;2.00;;;;;21.37;58.16;101539.94;4923771;28;47255;-78
2021/08/11 01:36:38;;;;;;;;;1.67;1.67;;;;;21.43;58.19;101555.81;4923728;28;45340;-77
2021/08/11 01:39:13;;;;;;;;;1.33;0.67;;;;;21.39;57.99;101553.31;4914850;28;45532;-78
2021/08/11 01:41:54;;;;;;;;;1.00;1.00;;;;;21.35;58.04;101549.81;4923478;28;45452;-77
2021/08/11 01:44:25;;;;;;;;;1.67;1.67;;;;;21.36;58.38;101540.88;4923491;28;47004;-77
2021/08/11 01:47:05;;;;;;;;;;;;;;;;;;;;;
2021/08/11 01:49:34;;;;;;;;;2.67;2.00;;;;;21.30;58.93;101536.59;4940022;28;67979;-77
2021/08/11 01:52:00;;;;;;;;;2.00;2.00;;;;;21.26;58.98;101529.59;4941087;28;45385;-78
2021/08/11 01:54:30;;;;;;;;;3.67;3.67;;;;;21.24;59.42;101535.94;4938345;28;47002;-78
2021/08/11 01:57:04;;;;;;;;;3.00;3.00;;;;;21.21;59.35;101519.97;4940744;28;45233;-78
2021/08/11 01:59:40;;;;;;;;;3.67;3.67;;;;;21.23;59.54;101529.72;4924544;28;45184;-77
2021/08/11 02:02:11;;;;;;;;;1.67;1.67;;;;;21.15;59.86;101526.44;4923530;28;45510;-78
2021/08/11 02:04:39;;;;;;;;;2.00;1.00;;;;;21.11;59.51;101520.28;4923558;28;47586;-78
2021/08/11 02:07:05;;;;;;;;;3.33;3.33;;;;;21.07;59.92;101517.78;4938202;28;45315;-78
2021/08/11 02:09:31;;;;;;;;;3.00;2.00;;;;;21.04;59.56;101512.56;4940896;28;45497;-78
2021/08/11 02:11:59;;;;;;;;;4.33;2.67;;;;;21.08;59.84;101522.22;4940732;28;45422;-78
2021/08/11 02:14:27;;;;;;;;;3.00;2.67;;;;;21.06;59.80;101529.41;4922232;28;47376;-77
2021/08/11 02:17:15;;;;;;;;;3.00;3.00;;;;;20.96;60.05;101514.63;4922044;28;46009;-78
2021/08/11 02:19:49;;;;;;;;;4.00;2.00;;;;;20.97;59.68;101521.72;4939645;28;45216;-78
2021/08/11 02:22:18;;;;;;;;;2.00;2.00;;;;;20.98;60.07;101526.13;4925277;28;45806;-77
2021/08/11 02:25:06;;;;;;;;;5.00;5.00;;;;;20.92;60.01;101520.06;4943800;28;46056;-78
2021/08/11 02:27:35;;;;;;;;;3.67;3.67;;;;;20.94;60.23;101525.38;4916203;28;45320;-78
2021/08/11 02:30:12;;;;;;;;;5.33;4.00;;;;;20.89;60.80;101516.63;4943805;28;45304;-77
2021/08/11 02:32:54;;;;;;;;;4.00;2.67;;;;;20.93;61.22;101518.28;4943784;28;45413;-78
2021/08/11 02:35:31;;;;;;;;;5.00;4.00;;;;;20.92;61.06;101517.38;4930288;28;47840;-78
2021/08/11 02:38:10;;;;;;;;;2.33;2.33;;;;;20.88;60.97;101504.19;4943378;28;45505;-78
2021/08/11 02:40:56;;;;;;;;;2.00;2.00;;;;;20.93;60.75;101521.81;4944115;28;45410;-78
2021/08/11 02:43:47;;;;;;;;;5.00;3.00;;;;;20.94;61.12;101520.03;4943525;28;45261;-77
2021/08/11 02:46:19;;;;;;;;;3.67;2.67;;;;;20.88;60.91;101517.56;4943279;28;45605;-77
2021/08/11 02:49:01;;;;;;;;;2.00;1.67;;;;;20.92;61.62;101520.06;4926305;28;45310;-78
2021/08/11 02:51:30;;;;;;;;;3.33;3.33;;;;;20.88;61.26;101512.22;4943622;28;45391;-78
2021/08/11 02:54:01;;;;;;;;;4.67;3.67;;;;;20.88;61.77;101512.22;4943538;28;45304;-77
2021/08/11 02:56:34;;;;;;;;;2.67;2.67;;;;;20.86;61.60;101508.69;4926080;28;47300;-78
2021/08/11 02:59:03;;;;;;;;;3.00;3.00;;;;;20.83;61.25;101511.50;4943386;28;45311;-78
2021/08/11 03:01:33;;;;;;;;;2.67;2.67;;;;;20.85;61.49;101515.88;4922947;28;45346;-78
2021/08/11 03:04:01;;;;;;;;;3.33;3.33;;;;;20.81;61.90;101524.91;4940883;28;45369;-77
2021/08/11 03:06:32;;;;;;;;;3.00;3.00;;;;;20.78;61.85;101516.13;4943283;28;45407;-77
2021/08/11 03:08:59;;;;;;;;;4.00;4.00;;;;;20.71;61.76;101499.38;4925736;28;45544;-78
2021/08/11 03:11:30;;;;;;;;;4.00;4.00;;;;;20.73;61.81;101512.72;4943352;28;45466;-78
2021/08/11 03:14:00;;;;;;;;;4.00;4.00;;;;;20.71;61.93;101510.09;4925983;28;45739;-78
2021/08/11 03:16:30;;;;;;;;;3.00;3.00;;;;;20.69;62.10;101511.97;4942960;28;45434;-77
2021/08/11 03:18:58;;;;;;;;;1.67;1.67;;;;;20.74;62.17;101526.03;4940384;28;45290;-78
2021/08/11 03:21:29;;;;;;;;;4.00;3.00;;;;;20.70;62.36;101514.56;4925905;28;45331;-78
2021/08/11 03:23:56;;;;;;;;;4.00;3.00;;;;;20.71;62.28;101520.78;4925745;28;45271;-78
2021/08/11 03:26:27;;;;;;;;;4.67;4.67;;;;;20.73;62.14;101529.66;4942754;28;46244;-78
2021/08/11 03:29:01;;;;;;;;;5.00;4.67;;;;;20.78;62.71;101534.84;4930766;28;45271;-77
2021/08/11 03:31:30;;;;;;;;;4.00;3.00;;;;;20.77;62.63;101525.97;4942843;28;45348;-78
2021/08/11 03:34:06;;;;;;;;;2.67;2.67;;;;;20.81;62.35;101532.06;4942413;28;45512;-78
2021/08/11 03:36:34;;;;;;;;;4.00;4.00;;;;;20.84;62.64;101545.34;4925053;28;47256;-78
2021/08/11 03:39:04;;;;;;;;;3.00;3.00;;;;;20.80;62.64;101539.22;4942911;28;45449;-78
2021/08/11 03:41:33;;;;;;;;;4.33;4.00;;;;;20.79;62.86;101531.25;4942620;28;45233;-77
2021/08/11 03:44:03;;;;;;;;;4.33;4.33;;;;;20.80;62.70;101546.41;4942713;28;45338;-77
2021/08/11 03:46:33;;;;;;;;;4.33;4.33;;;;;20.82;62.74;101548.09;4942250;28;45410;-77
2021/08/11 03:49:03;;;;;;;;;2.00;2.00;;;;;20.80;62.67;101543.72;4942633;28;45398;-78
2021/08/11 03:51:29;;;;;;;;;3.67;3.33;;;;;20.84;62.75;101550.69;4925808;28;45482;-78
2021/08/11 03:53:59;;;;;;;;;3.67;3.67;;;;;20.81;62.71;101545.44;4925185;28;45490;-77
2021/08/11 03:56:24;;;;;;;;;4.67;4.67;;;;;20.79;62.66;101547.28;4924783;28;47824;-77
2021/08/11 03:58:52;;;;;;;;;3.67;3.00;;;;;20.75;62.80;101546.53;4942164;28;45421;-77
2021/08/11 04:01:21;;;;;;;;;3.33;3.33;;;;;20.75;62.71;101548.34;4942577;28;45235;-78
2021/08/11 04:03:54;;;;;;;;;4.00;4.00;;;;;20.69;63.03;101538.72;4924983;28;45474;-77
2021/08/11 04:06:19;;;;;;;;;4.00;2.67;;;;;20.73;63.74;101552.88;4942301;28;45996;-77
2021/08/11 04:08:48;;;;;;;;;3.00;3.00;;;;;20.69;62.91;101544.06;4924806;28;45357;-77
2021/08/11 04:11:20;;;;;;;;;3.67;3.67;;;;;20.66;63.01;101545.03;4942370;28;45728;-78
2021/08/11 04:13:50;;;;;;;;;2.00;2.00;;;;;20.62;63.08;101545.19;4940833;28;45599;-77
2021/08/11 04:16:21;;;;;;;;;5.33;5.33;;;;;20.62;63.43;101553.22;4942200;28;45486;-78
2021/08/11 04:18:52;;;;;;;;;3.33;3.33;;;;;20.57;63.40;101547.13;4940925;28;45506;-77
2021/08/11 04:21:21;;;;;;;;;7.00;6.00;;;;;20.60;63.40;101550.56;4942488;28;45176;-78
2021/08/11 04:23:59;;;;;;;;;;;;;;;;;;;;;
2021/08/11 04:26:30;;;;;;;;;5.00;5.00;;;;;20.56;63.49;101564.13;4940608;28;75074;-78
2021/08/11 04:28:56;;;;;;;;;4.00;4.00;;;;;20.52;63.97;101563.28;4942129;28;45295;-78
2021/08/11 04:31:21;;;;;;;;;6.67;4.67;;;;;20.48;63.73;101561.66;4924602;28;45470;-78
2021/08/11 04:33:49;;;;;;;;;5.00;5.00;;;;;20.49;63.66;101555.38;4937681;28;46113;-77
2021/08/11 04:36:15;;;;;;;;;5.33;5.33;;;;;20.46;63.86;101563.50;4936682;28;45470;-78
2021/08/11 04:38:42;;;;;;;;;4.33;4.33;;;;;20.47;64.19;101568.81;4942026;28;45423;-77
2021/08/11 04:41:20;;;;;;;;;5.67;4.67;;;;;20.40;64.25;101566.38;4924751;28;45876;-77
2021/08/11 04:43:57;;;;;;;;;6.00;6.00;;;;;20.36;64.55;101568.25;4924561;28;45983;-77
2021/08/11 04:46:25;;;;;;;;;5.67;4.67;;;;;20.32;64.21;101557.72;4940785;28;45502;-77
2021/08/11 04:48:51;;;;;;;;;6.67;5.33;;;;;20.34;64.46;101566.53;4941904;28;45402;-77
2021/08/11 04:51:26;;;;;;;;;7.67;7.67;;;;;20.31;64.26;101563.97;4941721;28;45556;-77
2021/08/11 04:53:53;;;;;;;;;5.67;5.67;;;;;20.26;64.46;101561.44;4924220;28;45293;-78
2021/08/11 04:56:28;;;;;;;;;4.67;4.67;;;;;20.23;64.76;101561.53;4941818;28;45288;-77
2021/08/11 04:59:03;;;;;;;;;;;;;;;;;;;;;
2021/08/11 05:01:38;;;;;;;;;5.00;5.00;;;;;20.24;64.65;101560.63;4940696;28;67486;-78
2021/08/11 05:04:03;;;;;;;;;7.67;6.33;;;;;20.23;64.91;101566.88;4924219;28;45299;-77
2021/08/11 05:06:32;;;;;;;;;6.00;6.00;;;;;20.18;64.37;101566.13;4941422;28;45678;-77
2021/08/11 05:09:05;;;;;;;;;7.33;6.33;;;;;20.20;64.38;101565.16;4940126;28;45466;-78
2021/08/11 05:11:40;;;;;;;;;5.67;5.67;;;;;20.22;64.27;101583.84;4941310;28;45181;-77
2021/08/11 05:14:06;;;;;;;;;5.67;5.00;;;;;20.23;64.81;101582.91;4928141;28;46214;-77
2021/08/11 05:16:42;;;;;;;;;6.33;6.33;;;;;20.18;64.41;101568.81;4923533;28;47088;-77
2021/08/11 05:19:25;;;;;;;;;5.67;5.67;;;;;20.23;64.54;101585.59;4923964;28;45446;-78
2021/08/11 05:21:53;;;;;;;;;5.00;5.00;;;;;20.22;64.68;101587.41;4941445;28;45402;-78
2021/08/11 05:24:23;;;;;;;;;7.67;6.67;;;;;20.17;64.62;101581.31;4923813;28;45364;-78
2021/08/11 05:26:51;;;;;;;;;7.67;6.33;;;;;20.21;64.76;101584.78;4940821;28;46378;-77
2021/08/11 05:29:22;;;;;;;;;4.67;4.67;;;;;20.22;65.42;101592.75;4941337;28;45470;-77
2021/08/11 05:31:50;;;;;;;;;7.33;5.67;;;;;20.24;65.11;101590.03;4923664;28;45290;-77
2021/08/11 05:34:15;;;;;;;;;9.67;7.33;;;;;20.25;65.10;101592.66;4941336;28;45318;-77
2021/08/11 05:36:41;;;;;;;;;6.33;6.33;;;;;20.32;64.70;101601.38;4923438;28;46910;-79
2021/08/11 05:39:06;;;;;;;;;6.33;6.33;;;;;20.34;64.89;101604.91;4941332;28;45332;-79
2021/08/11 05:41:35;;;;;;;;;8.67;7.67;;;;;20.28;64.96;101597.91;4923654;28;45726;-79
2021/08/11 05:44:04;;;;;;;;;9.00;7.33;;;;;20.30;65.04;101594.31;4923945;28;45557;-79
2021/08/11 05:46:37;;;;;;;;;6.33;6.00;;;;;20.35;65.01;101609.31;4923611;28;45815;-79
2021/08/11 05:49:06;;;;;;;;;8.00;8.00;;;;;20.36;64.60;101608.38;4921297;28;45203;-78
2021/08/11 05:51:45;;;;;;;;;7.33;7.33;;;;;20.38;64.61;101603.00;4941118;28;45461;-78
2021/08/11 05:54:21;;;;;;;;;6.75;6.50;;;;;20.49;64.81;101615.09;4940948;28;45431;-80
2021/08/11 05:56:51;;;;;;;;;8.33;7.00;;;;;20.50;64.55;101607.94;4942242;28;45351;-78
2021/08/11 05:59:19;;;;;;;;;8.25;7.25;;;;;20.57;64.81;101611.34;4926809;28;45516;-79
2021/08/11 06:01:45;;;;;;;;;7.00;7.00;;;;;20.63;64.40;101613.81;4944351;28;45494;-79
2021/08/11 06:04:15;;;;;;;;;7.67;7.67;;;;;20.69;64.54;101621.69;4944100;28;45330;-80
2021/08/11 06:06:40;;;;;;;;;6.67;6.33;;;;;20.69;64.54;101613.66;4923944;28;47201;-79
2021/08/11 06:09:10;;;;;;;;;11.33;10.00;;;;;20.77;64.42;101619.63;4926632;28;45371;-78
2021/08/11 06:11:46;;;;;;;;;5.33;5.33;;;;;20.81;64.00;101621.25;4945951;28;45421;-78
2021/08/11 06:14:16;;;;;;;;;6.00;5.33;;;;;20.89;64.12;101626.38;4963659;28;45311;-81
2021/08/11 06:16:44;;;;;;;;;6.33;5.67;;;;;20.95;63.84;101634.19;4945124;28;47292;-82
2021/08/11 06:19:10;;;;;;;;;6.33;5.67;;;;;20.97;63.55;101636.84;4960887;28;46054;-80
2021/08/11 06:21:43;;;;;;;;;7.00;6.00;;;;;21.02;63.44;101637.56;4963263;28;45502;-79
2021/08/11 06:24:18;;;;;;;;;8.00;7.00;;;;;21.05;63.51;101635.66;4946063;28;45410;-79
2021/08/11 06:26:48;;;;;;;;;5.33;5.33;;;;;21.05;63.21;101632.09;4945266;28;48260;-79
2021/08/11 06:29:22;;;;;;;;;5.00;5.00;;;;;21.07;63.37;101633.81;4945591;28;45468;-78
2021/08/11 06:31:55;;;;;;;;;7.00;6.00;;;;;21.03;62.97;101629.47;4962984;28;45297;-81
2021/08/11 06:34:26;;;;;;;;;6.67;5.33;;;;;21.09;63.19;101642.66;4942511;28;45800;-78
2021/08/11 06:36:56;;;;;;;;;6.00;6.00;;;;;21.08;63.15;101634.66;4962177;28;45467;-78
2021/08/11 06:39:28;;;;;;;;;6.00;6.00;;;;;21.11;63.30;101634.56;4962997;28;45315;-78
2021/08/11 06:42:06;;;;;;;;;6.67;6.67;;;;;21.08;63.15;101637.34;4962927;28;45485;-80
2021/08/11 06:44:41;;;;;;;;;;;;;;;;;;;;;
2021/08/11 06:48:05;;;;;;;;;5.00;5.00;;;;;21.13;62.72;101644.31;4961743;28;75597;-80
2021/08/11 06:50:31;;;;;;;;;7.33;6.00;;;;;21.08;62.94;101634.66;4953049;28;45228;-80
2021/08/11 06:52:58;;;;;;;;;7.67;6.67;;;;;21.13;62.67;101646.97;4961763;28;45394;-78
2021/08/11 06:55:26;;;;;;;;;6.00;6.00;;;;;21.10;62.83;101633.69;4958469;28;45440;-78
2021/08/11 06:57:54;;;;;;;;;6.00;5.33;;;;;21.13;62.75;101638.06;4944367;28;48534;-78
2021/08/11 07:00:20;;;;;;;;;5.67;5.67;;;;;21.12;62.63;101629.16;4945271;28;45424;-80
2021/08/11 07:03:02;;;;;;;;;;;;;;;;;;;;;
2021/08/11 07:05:30;;;;;;;;;5.00;4.00;;;;;21.14;62.58;101629.09;4961965;28;72906;-80
2021/08/11 07:08:08;;;;;;;;;6.00;6.00;;;;;21.14;62.30;101632.69;4941026;28;46016;-77
2021/08/11 07:10:36;;;;;;;;;8.00;6.00;;;;;21.17;62.49;101638.84;4948488;28;45245;-78
2021/08/11 07:13:09;;;;;;;;;5.33;4.67;;;;;21.16;62.21;101640.66;4925721;28;45502;-78
2021/08/11 07:15:36;;;;;;;;;4.67;4.67;;;;;21.12;62.16;101634.53;4925652;28;45533;-77
2021/08/11 07:18:02;;;;;;;;;6.33;6.00;;;;;21.12;61.97;101637.22;4925434;28;45490;-77
2021/08/11 07:20:31;;;;;;;;;7.00;6.67;;;;;21.10;62.29;101639.06;4942852;28;45366;-78
2021/08/11 07:22:58;;;;;;;;;7.33;7.33;;;;;21.18;62.31;101648.66;4925738;28;45366;-77
2021/08/11 07:25:25;;;;;;;;;4.67;4.67;;;;;21.27;61.92;101661.72;4925384;28;45594;-78
2021/08/11 07:28:03;;;;;;;;;6.00;4.00;;;;;21.40;61.55;101659.53;4925226;28;46306;-80
2021/08/11 07:30:31;;;;;;;;;6.00;6.00;;;;;21.44;61.47;101656.72;4912773;28;45446;-78
2021/08/11 07:33:07;;;;;;;;;7.00;6.00;;;;;21.50;61.13;101659.16;4942627;28;45332;-77
2021/08/11 07:35:36;;;;;;;;;4.33;4.33;;;;;21.58;60.81;101654.41;4924554;28;45504;-78
2021/08/11 07:38:08;;;;;;;;;4.00;4.00;;;;;21.65;60.68;101655.09;4941908;28;45475;-78
2021/08/11 07:40:35;;;;;;;;;5.67;5.67;;;;;21.72;60.45;101663.78;4925093;28;45816;-78
2021/08/11 07:43:03;;;;;;;;;3.67;3.67;;;;;21.75;60.17;101660.97;4941073;28;45303;-77
2021/08/11 07:45:30;;;;;;;;;7.00;6.00;;;;;21.77;60.23;101659.13;4942487;28;45583;-77
2021/08/11 07:48:16;;;;;;;;;5.00;5.00;;;;;21.82;60.06;101658.97;4942253;28;46246;-78
2021/08/11 07:50:47;;;;;;;;;13.25;12.25;;;;;21.80;59.56;101654.50;4937740;28;45423;-78
2021/08/11 07:53:14;;;;;;;;;5.00;3.33;;;;;21.86;59.63;101658.78;4940128;28;45470;-77
2021/08/11 07:55:44;;;;;;;;;5.67;5.67;;;;;21.88;59.60;101648.88;4919625;28;45560;-84
2021/08/11 07:58:30;;;;;;;;;4.00;4.00;;;;;21.93;59.19;101640.69;4942269;28;45352;-83
2021/08/11 08:01:03;;;;;;;;;4.67;4.67;;;;;22.01;59.47;101639.44;4943315;28;45434;-82
2021/08/11 08:03:29;;;;;;;;;4.33;4.33;;;;;22.13;59.39;101645.28;4942573;28;45240;-83
2021/08/11 08:05:57;;;;;;;;;6.00;4.00;;;;;22.17;59.09;101646.94;4941977;28;45196;-77
2021/08/11 08:08:27;;;;;;;;;5.00;4.00;;;;;22.18;58.57;101632.56;4924737;28;46930;-80
2021/08/11 08:10:55;;;;;;;;;3.33;3.00;;;;;22.25;58.55;101639.50;4941975;28;45318;-77
2021/08/11 08:13:28;;;;;;;;;5.00;4.67;;;;;22.32;58.21;101641.03;4941855;28;45263;-77
2021/08/11 08:15:54;;;;;;;;;4.00;4.00;;;;;22.37;58.09;101644.41;4924781;28;45937;-77
2021/08/11 08:18:29;;;;;;;;;3.67;3.00;;;;;22.46;57.85;101645.84;4940340;28;45469;-78
2021/08/11 08:20:57;;;;;;;;;4.00;4.00;;;;;22.50;57.89;101641.22;4941891;28;45287;-77
2021/08/11 08:23:30;;;;;;;;;5.00;4.00;;;;;22.60;57.55;101637.25;4941996;28;45445;-77
2021/08/11 08:26:03;;;;;;;;;4.33;4.00;;;;;22.65;57.45;101644.19;4924413;28;45605;-77
2021/08/11 08:28:33;;;;;;;;;6.33;5.33;;;;;22.71;57.64;101637.69;4941614;28;46106;-80
2021/08/11 08:30:59;;;;;;;;;4.00;4.00;;;;;22.81;57.28;101649.81;4941809;28;45440;-78
2021/08/11 08:33:24;;;;;;;;;6.67;5.67;;;;;22.85;57.09;101642.50;4941888;28;45417;-77
2021/08/11 08:35:52;;;;;;;;;5.00;5.00;;;;;22.86;56.79;101642.47;4924123;28;45578;-77
2021/08/11 08:38:25;;;;;;;;;5.00;4.00;;;;;22.89;56.68;101646.81;4941588;28;45409;-77
2021/08/11 08:40:53;;;;;;;;;3.00;3.00;;;;;22.92;56.38;101651.19;4941729;28;45430;-77
2021/08/11 08:43:21;;;;;;;;;7.00;5.67;;;;;22.96;56.02;101644.75;4941325;28;45316;-77
2021/08/11 08:45:51;;;;;;;;;3.33;3.00;;;;;22.96;55.38;101644.75;4941548;28;45343;-77
2021/08/11 08:48:22;;;;;;;;;3.67;3.67;;;;;23.01;55.82;101654.41;4911593;28;47539;-77
2021/08/11 08:51:08;;;;;;;;;3.33;3.33;;;;;23.09;55.36;101648.72;4923827;28;45451;-77
2021/08/11 08:53:44;;;;;;;;;4.00;4.00;;;;;23.10;55.21;101645.09;4937123;28;45517;-77
2021/08/11 08:56:10;;;;;;;;;3.00;3.00;;;;;23.17;55.20;101643.88;4922986;28;45461;-77
2021/08/11 08:58:44;;;;;;;;;4.67;4.33;;;;;23.30;54.63;101644.25;4941461;28;46200;-77
2021/08/11 09:01:12;;;;;;;;;4.00;4.00;;;;;23.41;55.07;101652.72;4928564;28;45349;-77
2021/08/11 09:03:48;;;;;;;;;6.00;4.00;;;;;23.47;54.23;101640.84;4941666;28;45483;-77
2021/08/11 09:06:16;;;;;;;;;4.67;4.67;;;;;23.53;53.92;101645.97;4936958;28;46221;-79
2021/08/11 09:09:07;;;;;;;;;4.67;4.67;;;;;23.59;53.83;101644.81;4939728;28;47274;-77
2021/08/11 09:11:41;;;;;;;;;6.00;6.00;;;;;23.63;53.95;101643.72;4942545;28;45395;-78
2021/08/11 09:14:25;;;;;;;;;4.00;4.00;;;;;23.74;53.65;101641.50;4961001;28;45467;-78
2021/08/11 09:16:53;;;;;;;;;5.00;4.00;;;;;23.79;54.02;101634.09;4959099;28;45479;-78
2021/08/11 09:19:31;;;;;;;;;;;;;;;;;;;;;
2021/08/11 09:21:58;;;;;;;;;4.00;4.00;;;;;23.78;53.52;101638.56;4959308;28;72854;-78
2021/08/11 09:24:27;;;;;;;;;5.33;5.33;;;;;23.80;53.02;101651.97;4958639;28;45407;-79
2021/08/11 09:27:13;;;;;;;;;4.67;4.33;;;;;23.83;53.25;101641.06;4960187;28;45444;-78
2021/08/11 09:29:40;;;;;;;;;5.33;4.00;;;;;23.88;53.19;101630.97;4960205;28;45327;-78
2021/08/11 09:32:18;;;;;;;;;4.00;4.00;;;;;23.98;53.41;101628.75;4962311;28;45311;-78
2021/08/11 09:34:43;;;;;;;;;4.00;4.00;;;;;24.12;52.70;101644.25;4963662;28;45407;-79
2021/08/11 09:37:12;;;;;;;;;3.00;3.00;;;;;24.19;52.64;101638.53;4963385;28;45252;-79
2021/08/11 09:39:40;;;;;;;;;6.00;5.00;;;;;24.24;52.13;101635.59;4963519;28;45934;-81
2021/08/11 09:42:11;;;;;;;;;4.00;4.00;;;;;24.20;51.75;101634.88;4963459;28;45533;-79
2021/08/11 09:44:38;;;;;;;;;6.33;5.00;;;;;24.20;52.30;101636.72;4963361;28;45517;-78
2021/08/11 09:47:18;;;;;;;;;5.00;4.67;;;;;24.24;52.01;101635.59;4963364;28;45311;-78
2021/08/11 09:50:08;;;;;;;;;5.67;5.00;;;;;24.37;51.56;101646.66;4945800;28;47389;-78
2021/08/11 09:52:56;;;;;;;;;7.00;7.00;;;;;24.45;51.11;101635.56;4963098;28;45282;-80
2021/08/11 09:55:47;;;;;;;;;8.00;7.67;;;;;24.47;50.94;101631.88;4963507;28;45417;-80
2021/08/11 09:58:23;;;;;;;;;5.00;5.00;;;;;24.53;50.60;101633.38;4948830;28;45177;-80
2021/08/11 10:01:06;;;;;;;;;4.67;4.67;;;;;24.53;50.81;101636.94;4963076;28;46223;-80
2021/08/11 10:03:33;;;;;;;;;8.00;7.00;;;;;24.50;50.57;101633.53;4945433;28;45327;-81
2021/08/11 10:06:04;;;;;;;;;4.33;4.33;;;;;24.57;50.52;101630.47;4950751;28;45317;-81
2021/08/11 10:08:39;;;;;;;;;7.67;6.67;;;;;24.66;50.55;101629.16;4963121;28;45429;-80
2021/08/11 10:11:07;;;;;;;;;6.00;5.00;;;;;24.75;50.19;101630.53;4947723;28;46395;-82
2021/08/11 10:13:50;;;;;;;;;;;;;;;;;;;;;
2021/08/11 10:16:25;;;;;;;;;6.67;5.00;;;;;25.00;49.80;101631.06;4940736;28;68913;-78
2021/08/11 10:21:58;;;;;;;;;7.00;4.00;;;;;25.04;49.62;101626.38;4931629;28;45930;-80
2021/08/11 10:24:28;;;;;;;;;7.00;5.00;;;;;25.19;49.01;101630.19;4942296;28;45430;-84
2021/08/11 10:30:50;;;;;;;;;5.67;5.33;;;;;25.57;47.91;101621.91;4852946;28;45585;-86
2021/08/11 10:33:18;;;;;;;;;4.67;4.67;;;;;25.66;48.12;101629.50;4924835;28;47589;-80
2021/08/11 10:35:50;;;;;;;;;5.67;5.33;;;;;25.69;48.05;101632.06;4942097;28;45374;-78
2021/08/11 10:38:19;;;;;;;;;6.33;5.00;;;;;25.66;47.18;101624.13;4942208;28;45569;-77
2021/08/11 10:40:53;;;;;;;;;7.00;6.67;;;;;25.60;47.62;101633.41;4921696;28;45475;-77
2021/08/11 10:43:24;;;;;;;;;6.00;6.00;;;;;25.52;47.81;101641.03;4938408;28;46271;-77
2021/08/11 10:46:06;;;;;;;;;6.33;6.00;;;;;25.54;47.81;101631.03;4942044;28;45756;-77
2021/08/11 10:48:39;;;;;;;;;7.67;7.00;;;;;25.68;47.61;101630.31;4924391;28;45468;-77
2021/08/11 10:51:04;;;;;;;;;4.00;4.00;;;;;25.85;47.73;101621.34;4920833;28;45608;-76
2021/08/11 10:53:33;;;;;;;;;6.00;6.00;;;;;26.03;47.04;101617.66;4932288;28;45347;-78
2021/08/11 10:56:03;;;;;;;;;6.00;5.00;;;;;26.12;46.98;101619.00;4941943;28;45422;-78
2021/08/11 10:58:48;;;;;;;;;5.00;5.00;;;;;26.12;46.54;101617.16;4941862;28;45379;-77
2021/08/11 11:01:34;;;;;;;;;5.33;5.33;;;;;26.21;46.73;101618.47;4923384;28;45674;-79
2021/08/11 11:04:01;;;;;;;;;3.33;3.00;;;;;26.34;45.44;101619.53;4924096;28;48194;-75
2021/08/11 11:07:11;;;;;;;;;5.00;4.33;;;;;26.45;44.97;101607.25;4941453;28;45527;-80
2021/08/11 11:10:05;;;;;;;;;7.00;7.00;;;;;26.51;45.51;101599.69;4874318;29;45545;-78
2021/08/11 11:12:32;;;;;;;;;4.67;3.67;;;;;26.68;45.18;101612.25;4877048;29;45571;-77
2021/08/11 11:15:01;;;;;;;;;4.67;3.33;;;;;26.74;44.85;101609.19;4937188;28;45343;-77
2021/08/11 11:17:30;;;;;;;;;3.67;3.67;;;;;26.73;44.65;101602.06;4942857;28;45338;-77
2021/08/11 11:20:08;;;;;;;;;5.33;5.33;;;;;26.82;44.92;101598.81;4961112;28;45441;-76
2021/08/11 11:22:36;;;;;;;;;4.00;3.00;;;;;26.86;44.12;101598.63;4961334;28;45505;-78
2021/08/11 11:25:03;;;;;;;;;4.67;4.00;;;;;26.95;43.17;101598.09;4942807;28;48433;-77
2021/08/11 11:27:43;;;;;;;;;5.67;5.67;;;;;27.04;43.94;101595.72;4961407;28;45464;-78
2021/08/11 11:30:09;;;;;;;;;6.33;6.33;;;;;27.10;42.99;101596.31;4961011;28;45401;-77
2021/08/11 11:32:38;;;;;;;;;4.33;3.33;;;;;27.12;44.11;101594.38;4959463;28;45183;-78
2021/08/11 11:35:40;;;;;;;;;5.00;5.00;;;;;27.30;43.04;101589.75;4960557;28;46225;-76
2021/08/11 11:38:20;;;;;;;;;5.67;5.67;;;;;27.43;42.44;101591.59;4939935;28;45649;-79
2021/08/11 11:41:23;;;;;;;;;4.67;4.67;;;;;27.56;42.61;101591.72;4957278;28;45682;-83
2021/08/11 11:43:56;;;;;;;;;4.67;4.67;;;;;27.61;42.57;101592.31;4943151;28;45562;-79
2021/08/11 11:46:57;;;;;;;;;7.00;5.67;;;;;27.70;42.15;101594.44;4941491;28;47725;-80
2021/08/11 11:49:25;;;;;;;;;8.00;7.67;;;;;27.80;42.03;101600.19;4937910;28;45716;-76
2021/08/11 11:51:54;;;;;;;;;4.00;4.00;;;;;27.78;42.08;101591.25;4960888;28;45275;-76
2021/08/11 11:54:26;;;;;;;;;4.33;4.00;;;;;27.88;41.82;101588.84;4958194;28;45394;-76
2021/08/11 11:56:54;;;;;;;;;3.67;3.67;;;;;28.08;41.19;101588.47;4959843;28;45807;-77
2021/08/11 11:59:20;;;;;;;;;4.00;4.00;;;;;28.21;40.90;101585.84;4960150;28;45577;-77
2021/08/11 12:01:46;;;;;;;;;5.00;4.00;;;;;28.35;41.34;101590.38;4942602;28;45517;-77
2021/08/11 12:04:23;;;;;;;;;4.67;4.33;;;;;28.47;40.90;101581.50;4960408;28;45472;-76
2021/08/11 12:06:58;;;;;;;;;3.00;3.00;;;;;28.62;39.99;101586.84;4941963;28;46091;-76
2021/08/11 12:09:26;;;;;;;;;5.00;5.00;;;;;28.64;40.34;101582.19;4958157;28;45441;-76
2021/08/11 12:11:52;;;;;;;;;6.00;5.00;;;;;28.53;39.71;101586.50;4940775;28;45441;-77
2021/08/11 12:14:24;;;;;;;;;5.67;4.67;;;;;28.40;40.18;101588.22;4940515;28;45792;-77